Airfield :
LOGIN :

Register | Disclaimer

   EN    FR    IT 

 










Legend :    VFR   Marginal VFR   IFR   Intensive IFR   Very Intensive IFR
Visi :
Ceiling :
>= 8 km
>= 3000ft
5 to 8 km
1000 to 3000 ft
1500m to 5 km
500 to 1000 ft
800 to 1500m
200 to 500 ft
< 800m
< 200 ft
Symbols :   Thunderstorms  Fog  Heavy snow  Heavy precipitations  Wind > 20 kt
SIGMETs :     Misc.  Thunderstorms  Icing  Turbulence  Mountain Waves  Volcanic Ashes







- Airport Elevation : 203 ft
- IATA code : XMJ
- Download approach charts


LFBM - Mont-De-Marsan

CURRENT METAR :
  • 162200Z AUTO 08005KT CAVOK 06/04 Q1022 NOSIG

EXPIRED METARs :
  • 162130Z AUTO 10004KT CAVOK 07/05 Q1022 NOSIG
  • 162100Z AUTO 10004KT CAVOK 07/05 Q1022 NOSIG
  • 162030Z AUTO 09005KT CAVOK 08/05 Q1022 NOSIG
  • 162000Z AUTO 08005KT CAVOK 07/04 Q1022
  • 161930Z AUTO 09004KT CAVOK 09/05 Q1023 NOSIG

TAF TAF LFBM
Valid from the 16 at 21:00 until the 17 at 21:00 UTC


162000Z 1621/1721 10005KT CAVOK
PROB30
TEMPO 1703/1707 3000 BR BKN004
No reported NOTAMs for that airfield.
2 SIGMETs reported for the Bordeaux FIR (LFBB) :
 
Severe mountain waves
LFBB SIGMET 2 VALID 170100/170500 LFPW
LFBB BORDEAUX FIR/UIR SEV MTW FCST WI N4230 E00045 - N4300 W00145 - N4330 W00145 - N4300 E00045 - N4230 E00045 SFC/FL200 STNR WKN=
Severe turbulence
LFBB SIGMET 1 VALID 162110/170100 LFPW
LFBB BORDEAUX FIR/UIR SEV TURB FCST WI N4230 E00045 - N4300 W00145 - N4330 W00145 - N4300 E00045 - N4230 E00045 SFC/FL100 STNR INTSF=



MET'MAP, your aeronautical weather chart ! - Copyright ORBIFLY December 2007 - Disclaimer

ORBIFLY MET'MAP TEAM :

Programming & Development : Alexandra Zaïnal
Concept & Development : Baudouin d'Aumeries
Co-Development & Prog : Marc-Olivier Méhu
Technical & hardware support : Manuel Goepfert

Contact : metmap@orbifly.com




SOURCES & CREDITS :

   NOAA